createdAt,value
2022-11-19T00:02:22.346Z,16.78
2022-11-19T00:05:06.277Z,16.20
2022-11-19T00:07:50.066Z,16.62
2022-11-19T00:10:35.555Z,16.51
2022-11-19T00:13:18.302Z,16.59
2022-11-19T00:16:05.138Z,16.75
2022-11-19T00:18:48.855Z,16.69
2022-11-19T00:21:32.890Z,16.29
2022-11-19T00:24:16.913Z,16.26
2022-11-19T00:27:00.960Z,16.53
2022-11-19T00:29:44.831Z,16.38
2022-11-19T00:32:31.082Z,16.49
2022-11-19T00:35:16.235Z,16.20
2022-11-19T00:38:00.055Z,16.55
2022-11-19T00:40:43.963Z,16.70
2022-11-19T00:43:53.852Z,16.72
2022-11-19T00:46:37.543Z,16.54
2022-11-19T00:49:22.699Z,16.71
2022-11-19T00:52:06.888Z,16.77
2022-11-19T00:54:50.679Z,16.55
2022-11-19T00:57:34.348Z,16.60
2022-11-19T01:00:18.857Z,16.13
2022-11-19T01:03:02.639Z,16.37
2022-11-19T01:05:47.809Z,16.09
2022-11-19T01:08:31.558Z,16.03
2022-11-19T01:11:18.461Z,16.06
2022-11-19T01:14:03.377Z,15.75
2022-11-19T01:16:47.453Z,15.94
2022-11-19T01:19:31.520Z,15.85
2022-11-19T01:22:17.024Z,15.61
2022-11-19T01:25:01.031Z,15.08
2022-11-19T01:27:45.242Z,15.54
2022-11-19T01:30:29.253Z,15.45
2022-11-19T01:33:13.446Z,15.56
2022-11-19T01:36:01.214Z,15.75
2022-11-19T01:38:50.684Z,15.70
2022-11-19T01:41:35.037Z,15.72
2022-11-19T01:45:01.621Z,16.02
2022-11-19T01:47:47.364Z,15.85
2022-11-19T01:50:34.092Z,15.92
2022-11-19T01:53:19.363Z,15.82
2022-11-19T01:56:07.905Z,15.63
2022-11-19T01:58:56.409Z,15.91
2022-11-19T02:01:40.176Z,15.96
2022-11-19T02:04:25.257Z,15.94
2022-11-19T02:07:12.962Z,15.87
2022-11-19T02:09:57.043Z,15.80
2022-11-19T02:12:49.402Z,15.93
2022-11-19T02:16:00.880Z,15.36
2022-11-19T02:18:53.329Z,15.53
2022-11-19T02:21:43.105Z,15.74
2022-11-19T02:24:43.330Z,15.54
2022-11-19T02:28:08.172Z,15.49
2022-11-19T02:30:55.668Z,15.50
2022-11-19T02:33:46.492Z,15.23
2022-11-19T02:36:37.169Z,15.21
2022-11-19T02:39:27.203Z,15.31
2022-11-19T02:42:19.661Z,15.31
2022-11-19T02:45:08.305Z,14.84
2022-11-19T02:47:56.339Z,14.99
2022-11-19T02:50:46.132Z,14.80
2022-11-19T02:53:30.342Z,14.73
2022-11-19T02:56:17.764Z,14.73
2022-11-19T02:59:20.308Z,14.49
2022-11-19T03:02:23.912Z,14.33
2022-11-19T03:05:14.645Z,14.28
2022-11-19T03:07:59.248Z,14.44
2022-11-19T03:10:49.413Z,14.41
2022-11-19T03:13:59.965Z,14.53
2022-11-19T03:16:50.706Z,14.55
2022-11-19T03:19:38.522Z,14.71
2022-11-19T03:22:28.190Z,14.64
2022-11-19T03:25:17.615Z,14.52
2022-11-19T03:28:05.969Z,14.83
2022-11-19T03:30:52.517Z,15.04
2022-11-19T03:33:41.362Z,15.21
2022-11-19T03:36:28.124Z,15.38
2022-11-19T03:39:15.586Z,15.41
2022-11-19T03:41:59.651Z,15.37
2022-11-19T03:44:49.111Z,15.60
2022-11-19T03:47:36.762Z,15.50
2022-11-19T03:50:25.250Z,16.14
2022-11-19T03:53:09.188Z,16.03
2022-11-19T03:55:59.656Z,16.12
2022-11-19T03:58:46.627Z,16.38
2022-11-19T04:01:31.296Z,16.38
2022-11-19T04:04:32.812Z,16.17
2022-11-19T04:07:18.514Z,16.13
2022-11-19T04:10:02.300Z,16.46
2022-11-19T04:12:48.539Z,16.58
2022-11-19T04:15:32.377Z,16.46
2022-11-19T04:18:16.297Z,16.32
2022-11-19T04:21:00.380Z,16.45
2022-11-19T04:23:44.372Z,16.27
2022-11-19T04:26:28.451Z,16.28
2022-11-19T04:29:13.822Z,16.13
2022-11-19T04:31:57.684Z,16.36
2022-11-19T04:34:41.678Z,15.75
2022-11-19T04:37:25.664Z,15.89
2022-11-19T04:40:10.840Z,15.08
2022-11-19T04:42:54.772Z,15.61
2022-11-19T04:45:40.275Z,15.65
2022-11-19T04:48:24.242Z,15.45
2022-11-19T04:51:09.608Z,15.70
2022-11-19T04:53:53.791Z,15.69
2022-11-19T04:56:38.558Z,15.62
2022-11-19T04:59:22.864Z,15.66
2022-11-19T05:02:08.434Z,15.88
2022-11-19T05:04:52.371Z,15.62
2022-11-19T05:07:36.361Z,15.67
2022-11-19T05:10:20.467Z,15.81
2022-11-19T05:13:04.465Z,15.95
2022-11-19T05:15:48.534Z,15.99
2022-11-19T05:18:34.104Z,16.33
2022-11-19T05:21:18.047Z,16.19
2022-11-19T05:24:02.177Z,15.93
2022-11-19T05:26:46.188Z,15.63
2022-11-19T05:29:30.125Z,15.59
2022-11-19T05:32:14.087Z,15.46
2022-11-19T05:34:59.640Z,15.29
2022-11-19T05:37:43.582Z,15.78
2022-11-19T05:40:27.877Z,15.65
2022-11-19T05:43:11.907Z,15.55
2022-11-19T05:45:55.880Z,15.89
2022-11-19T05:48:39.934Z,15.92
2022-11-19T05:51:25.072Z,16.11
2022-11-19T05:54:08.968Z,15.95
2022-11-19T05:56:52.824Z,15.79
2022-11-19T05:59:42.251Z,15.98
2022-11-19T06:02:27.418Z,16.23
2022-11-19T06:05:12.327Z,16.12
2022-11-19T06:07:57.391Z,16.16
2022-11-19T06:10:41.126Z,16.20
2022-11-19T06:13:24.872Z,15.68
2022-11-19T06:16:08.978Z,16.48
2022-11-19T06:18:52.724Z,16.48
2022-11-19T06:21:36.651Z,16.48
2022-11-19T06:24:22.644Z,16.03
2022-11-19T06:27:06.401Z,16.30
2022-11-19T06:29:55.018Z,16.45
2022-11-19T06:32:39.909Z,16.69
2022-11-19T06:35:23.646Z,16.29
2022-11-19T06:38:07.308Z,17.05
2022-11-19T06:40:52.625Z,17.30
2022-11-19T06:43:36.595Z,16.74
2022-11-19T06:46:20.610Z,17.18
2022-11-19T06:49:05.986Z,16.63
2022-11-19T06:51:49.905Z,17.25
2022-11-19T06:54:35.791Z,16.57
2022-11-19T06:57:23.249Z,16.83
2022-11-19T07:00:08.569Z,17.07
2022-11-19T07:02:52.629Z,16.82
2022-11-19T07:05:36.734Z,16.49
2022-11-19T07:08:20.834Z,16.55
2022-11-19T07:11:26.119Z,16.20
2022-11-19T07:14:11.844Z,16.09
2022-11-19T07:16:57.573Z,16.50
2022-11-19T07:19:41.727Z,16.40
2022-11-19T07:22:25.623Z,16.60
2022-11-19T07:25:12.743Z,16.38
2022-11-19T07:27:56.644Z,16.20
2022-11-19T07:30:42.209Z,16.35
2022-11-19T07:33:26.241Z,16.70
2022-11-19T07:36:17.009Z,16.54
2022-11-19T07:39:02.413Z,16.73
2022-11-19T07:42:03.933Z,16.94
2022-11-19T07:44:54.646Z,17.02
2022-11-19T07:47:40.502Z,17.18
2022-11-19T07:50:24.490Z,17.13
2022-11-19T07:53:08.622Z,17.28
2022-11-19T07:55:52.650Z,17.65
2022-11-19T07:58:36.622Z,18.35
2022-11-19T08:01:22.670Z,17.51
2022-11-19T08:04:08.118Z,17.48
2022-11-19T08:06:52.204Z,17.69
2022-11-19T08:09:36.151Z,17.48
2022-11-19T08:12:19.906Z,17.54
2022-11-19T08:15:03.670Z,17.15
2022-11-19T08:18:04.718Z,17.44
2022-11-19T08:20:49.788Z,17.55
2022-11-19T08:23:34.253Z,17.60
2022-11-19T08:26:17.892Z,17.63
2022-11-19T08:29:01.615Z,17.23
2022-11-19T08:31:47.750Z,17.62
2022-11-19T08:34:32.984Z,18.03
2022-11-19T08:37:18.261Z,17.78
2022-11-19T08:40:02.123Z,17.71
2022-11-19T08:43:00.974Z,18.50
2022-11-19T08:45:53.850Z,19.14
2022-11-19T08:48:37.672Z,18.90
2022-11-19T08:51:21.400Z,19.43
2022-11-19T08:54:06.811Z,19.21
2022-11-19T08:56:50.617Z,19.17
2022-11-19T08:59:34.638Z,19.53
2022-11-19T09:02:18.405Z,19.47
2022-11-19T09:05:02.224Z,19.43
2022-11-19T09:07:46.631Z,19.44
2022-11-19T09:10:31.853Z,19.37
2022-11-19T09:13:15.665Z,19.26
2022-11-19T09:15:59.444Z,19.27
2022-11-19T09:18:43.627Z,19.17
2022-11-19T09:21:27.302Z,19.22
2022-11-19T09:24:11.056Z,18.72
2022-11-19T09:26:59.597Z,18.42
2022-11-19T09:29:46.270Z,18.27
2022-11-19T09:32:30.274Z,18.12
2022-11-19T09:35:14.114Z,18.41
2022-11-19T09:37:57.896Z,18.74
2022-11-19T09:40:46.223Z,18.92
2022-11-19T09:43:45.645Z,18.79
2022-11-19T09:46:35.043Z,19.22
2022-11-19T09:49:25.964Z,19.05
2022-11-19T09:52:15.221Z,19.39
2022-11-19T09:54:59.119Z,19.29
2022-11-19T09:57:48.926Z,19.11
2022-11-19T10:00:34.633Z,18.91
2022-11-19T10:03:22.108Z,18.53
2022-11-19T10:06:24.210Z,18.79
2022-11-19T10:09:26.197Z,19.17
2022-11-19T10:12:23.205Z,18.90
2022-11-19T10:15:17.424Z,19.08
2022-11-19T10:18:13.497Z,19.00
2022-11-19T10:21:05.906Z,19.18
2022-11-19T10:23:54.733Z,19.03
2022-11-19T10:26:41.726Z,19.04
2022-11-19T10:29:29.559Z,18.88
2022-11-19T10:32:24.116Z,19.07
2022-11-19T10:35:17.648Z,19.29
2022-11-19T10:38:04.183Z,19.73
2022-11-19T10:40:53.167Z,19.94
2022-11-19T10:43:46.260Z,19.81
2022-11-19T10:46:30.298Z,19.94
2022-11-19T10:49:13.977Z,19.56
2022-11-19T10:51:59.312Z,19.38
2022-11-19T10:54:43.442Z,19.51
2022-11-19T10:57:31.182Z,19.32
2022-11-19T11:00:16.604Z,19.77
2022-11-19T11:03:03.897Z,19.34
2022-11-19T11:06:06.891Z,19.17
2022-11-19T11:08:54.103Z,19.18
2022-11-19T11:11:51.722Z,18.92
2022-11-19T11:14:58.687Z,19.38
2022-11-19T11:17:44.759Z,19.43
2022-11-19T11:20:30.011Z,19.60
2022-11-19T11:23:17.247Z,19.59
2022-11-19T11:26:08.183Z,19.58
2022-11-19T11:28:58.450Z,19.98
2022-11-19T11:31:43.708Z,20.10
2022-11-19T11:34:32.556Z,20.09
2022-11-19T11:37:16.744Z,20.46
2022-11-19T11:40:01.456Z,20.19
2022-11-19T11:42:48.333Z,19.79
2022-11-19T11:45:34.412Z,19.72
2022-11-19T11:48:23.034Z,20.08
2022-11-19T11:51:07.255Z,20.07
2022-11-19T11:54:05.345Z,20.46
2022-11-19T11:56:49.658Z,20.50
2022-11-19T11:59:35.021Z,20.21
2022-11-19T12:02:27.317Z,19.75
2022-11-19T12:05:19.483Z,20.14
2022-11-19T12:08:06.711Z,20.79
2022-11-19T12:10:57.887Z,20.43
2022-11-19T12:13:55.114Z,20.87
2022-11-19T12:16:48.020Z,20.74
2022-11-19T12:19:46.723Z,20.71
2022-11-19T12:22:43.464Z,21.47
2022-11-19T12:25:33.404Z,21.47
2022-11-19T12:28:41.907Z,21.90
2022-11-19T12:31:42.570Z,21.73
2022-11-19T12:34:53.527Z,21.24
2022-11-19T12:37:58.507Z,20.99
2022-11-19T12:40:52.171Z,21.45
2022-11-19T12:43:55.150Z,21.79
2022-11-19T12:46:50.032Z,21.79
2022-11-19T12:49:56.269Z,21.89
2022-11-19T12:53:00.106Z,21.65
2022-11-19T12:55:53.218Z,21.71
2022-11-19T12:58:46.612Z,21.79
2022-11-19T13:01:35.655Z,21.55
2022-11-19T13:04:24.818Z,21.57
2022-11-19T13:07:14.707Z,21.54
2022-11-19T13:10:04.380Z,21.56
2022-11-19T13:12:53.083Z,21.59
2022-11-19T13:15:41.260Z,21.43
2022-11-19T13:18:28.843Z,21.57
2022-11-19T13:21:22.490Z,21.46
2022-11-19T13:24:25.471Z,21.53
2022-11-19T13:27:20.208Z,21.41
2022-11-19T13:30:15.316Z,21.24
2022-11-19T13:33:06.592Z,21.25
2022-11-19T13:35:59.470Z,21.25
2022-11-19T13:38:49.420Z,21.24
2022-11-19T13:42:00.450Z,20.97
2022-11-19T13:44:43.556Z,21.21
2022-11-19T13:47:32.391Z,21.14
2022-11-19T13:50:20.402Z,21.10
2022-11-19T13:53:07.787Z,21.05
2022-11-19T13:55:57.187Z,20.45
2022-11-19T13:58:46.988Z,20.74
2022-11-19T14:01:49.615Z,20.81
2022-11-19T14:04:59.540Z,20.75
2022-11-19T14:07:57.359Z,20.67
2022-11-19T14:10:46.787Z,20.55
2022-11-19T14:13:52.011Z,20.57
2022-11-19T14:17:03.503Z,20.11
2022-11-19T14:20:08.817Z,20.32
2022-11-19T14:23:13.746Z,20.14
2022-11-19T14:26:14.998Z,19.58
2022-11-19T14:29:00.154Z,20.17
2022-11-19T14:32:17.111Z,20.11
2022-11-19T14:35:42.277Z,19.74
2022-11-19T14:38:39.515Z,19.75
2022-11-19T14:41:30.263Z,19.55
2022-11-19T14:44:33.752Z,19.26
2022-11-19T14:47:34.443Z,19.33
2022-11-19T14:50:27.266Z,19.18
2022-11-19T14:53:20.632Z,18.92
2022-11-19T14:56:13.521Z,18.97
2022-11-19T14:59:08.749Z,18.59
2022-11-19T15:01:59.194Z,18.31
2022-11-19T15:04:52.481Z,18.50
2022-11-19T15:07:40.058Z,18.36
2022-11-19T15:10:47.345Z,18.64
2022-11-19T15:13:32.646Z,18.39
2022-11-19T15:16:19.507Z,18.33
2022-11-19T15:19:33.915Z,18.28
2022-11-19T15:22:34.271Z,18.36
2022-11-19T15:25:30.535Z,18.28
2022-11-19T15:28:26.895Z,18.18
2022-11-19T15:31:27.188Z,18.17
2022-11-19T15:35:04.084Z,17.76
2022-11-19T15:37:52.548Z,17.77
2022-11-19T15:40:36.768Z,17.79
2022-11-19T15:43:28.512Z,18.01
2022-11-19T15:46:16.154Z,17.91
2022-11-19T15:49:07.544Z,18.00
2022-11-19T15:52:07.369Z,17.82
2022-11-19T15:54:52.543Z,17.87
2022-11-19T15:57:43.224Z,17.91
2022-11-19T16:00:27.643Z,18.02
2022-11-19T16:03:12.015Z,18.08
2022-11-19T16:06:04.774Z,18.02
2022-11-19T16:08:52.920Z,18.29
2022-11-19T16:11:56.734Z,18.19
2022-11-19T16:14:58.104Z,18.09
2022-11-19T16:17:47.647Z,18.12
2022-11-19T16:20:31.447Z,18.25
2022-11-19T16:23:19.184Z,18.39
2022-11-19T16:26:03.737Z,18.42
2022-11-19T16:28:49.088Z,18.29
2022-11-19T16:31:33.040Z,18.30
2022-11-19T16:34:23.548Z,18.04
2022-11-19T16:37:07.361Z,17.90
2022-11-19T16:39:53.061Z,17.98
2022-11-19T16:42:37.835Z,18.02
2022-11-19T16:45:25.781Z,17.82
2022-11-19T16:48:59.620Z,17.76
2022-11-19T16:51:53.317Z,17.92
2022-11-19T16:54:46.762Z,17.79
2022-11-19T16:57:31.763Z,17.48
2022-11-19T17:00:18.474Z,17.49
2022-11-19T17:03:16.858Z,17.29
2022-11-19T17:06:00.765Z,17.12
2022-11-19T17:08:56.782Z,17.20
2022-11-19T17:12:09.381Z,16.92
2022-11-19T17:14:59.137Z,16.94
2022-11-19T17:17:43.556Z,16.85
2022-11-19T17:20:56.447Z,17.25
2022-11-19T17:23:49.106Z,16.73
2022-11-19T17:26:32.935Z,16.69
2022-11-19T17:29:23.357Z,17.07
2022-11-19T17:32:07.194Z,17.18
2022-11-19T17:34:55.270Z,17.19
2022-11-19T17:37:40.333Z,17.51
2022-11-19T17:40:24.148Z,17.72
2022-11-19T17:43:29.263Z,17.52
2022-11-19T17:46:13.045Z,17.66
2022-11-19T17:48:57.036Z,17.60
2022-11-19T17:51:40.833Z,17.48
2022-11-19T17:54:26.164Z,17.45
2022-11-19T17:57:10.108Z,17.76
2022-11-19T17:59:53.908Z,17.36
2022-11-19T18:02:37.871Z,17.27
2022-11-19T18:05:24.238Z,17.34
2022-11-19T18:08:08.031Z,17.00
2022-11-19T18:10:53.828Z,16.62
2022-11-19T18:13:38.527Z,17.16
2022-11-19T18:16:24.283Z,17.42
2022-11-19T18:19:13.436Z,16.98
2022-11-19T18:21:57.856Z,17.03
2022-11-19T18:24:42.040Z,16.95
2022-11-19T18:27:27.724Z,17.43
2022-11-19T18:30:13.116Z,17.37
2022-11-19T18:32:57.096Z,17.27
2022-11-19T18:35:40.959Z,17.18
2022-11-19T18:38:25.065Z,17.21
2022-11-19T18:41:11.626Z,17.40
2022-11-19T18:44:14.069Z,17.33
2022-11-19T18:46:58.014Z,17.51
2022-11-19T18:49:42.577Z,17.50
2022-11-19T18:52:26.426Z,17.40
2022-11-19T18:55:11.272Z,17.32
2022-11-19T18:57:56.427Z,17.30
2022-11-19T19:00:42.637Z,17.42
2022-11-19T19:03:26.597Z,17.06
2022-11-19T19:06:10.674Z,17.35
2022-11-19T19:08:54.665Z,17.01
2022-11-19T19:11:56.169Z,16.69
2022-11-19T19:14:40.168Z,16.52
2022-11-19T19:17:25.949Z,16.26
2022-11-19T19:20:11.433Z,16.50
2022-11-19T19:22:55.378Z,16.50
2022-11-19T19:25:39.414Z,16.36
2022-11-19T19:28:23.326Z,16.64
2022-11-19T19:31:08.165Z,16.73
2022-11-19T19:33:53.991Z,16.78
2022-11-19T19:36:38.160Z,16.41
2022-11-19T19:39:22.392Z,16.68
2022-11-19T19:42:06.602Z,16.40
2022-11-19T19:44:50.586Z,16.03
2022-11-19T19:47:34.463Z,15.95
2022-11-19T19:50:19.875Z,16.00
2022-11-19T19:53:04.175Z,16.05
2022-11-19T19:55:48.140Z,15.92
2022-11-19T19:58:32.562Z,16.30
2022-11-19T20:01:18.650Z,16.28
2022-11-19T20:04:04.742Z,15.95
2022-11-19T20:06:51.909Z,16.04
2022-11-19T20:09:35.896Z,16.22
2022-11-19T20:12:19.740Z,16.22
2022-11-19T20:15:04.367Z,16.45
2022-11-19T20:17:48.373Z,16.38
2022-11-19T20:20:32.132Z,16.44
2022-11-19T20:23:17.405Z,16.37
2022-11-19T20:26:02.919Z,16.71
2022-11-19T20:28:47.031Z,16.07
2022-11-19T20:31:32.146Z,16.80
2022-11-19T20:34:16.607Z,17.13
2022-11-19T20:37:00.364Z,17.19
2022-11-19T20:39:45.574Z,17.03
2022-11-19T20:43:00.964Z,17.25
2022-11-19T20:45:44.739Z,17.12
2022-11-19T20:48:28.558Z,16.96
2022-11-19T20:51:12.502Z,17.13
2022-11-19T20:53:56.266Z,17.03
2022-11-19T20:56:41.685Z,17.17
2022-11-19T20:59:26.781Z,17.30
2022-11-19T21:02:11.141Z,17.39
2022-11-19T21:04:55.719Z,17.53
2022-11-19T21:07:40.026Z,17.54
2022-11-19T21:10:23.912Z,17.50
2022-11-19T21:13:09.076Z,17.43
2022-11-19T21:15:53.289Z,17.31
2022-11-19T21:18:38.142Z,17.40
2022-11-19T21:21:24.133Z,17.39
2022-11-19T21:24:09.224Z,17.48
2022-11-19T21:26:53.012Z,17.62
2022-11-19T21:29:38.638Z,17.67
2022-11-19T21:32:22.428Z,17.75
2022-11-19T21:35:07.039Z,17.75
2022-11-19T21:37:50.833Z,17.59
2022-11-19T21:40:38.548Z,17.86
2022-11-19T21:43:23.393Z,17.83
2022-11-19T21:46:09.695Z,17.82
2022-11-19T21:48:53.449Z,17.39
2022-11-19T21:51:37.231Z,17.61
2022-11-19T21:54:20.979Z,17.66
2022-11-19T21:57:04.866Z,17.65
2022-11-19T21:59:48.671Z,17.57
2022-11-19T22:02:34.155Z,17.59
2022-11-19T22:05:18.141Z,17.59
2022-11-19T22:08:02.622Z,17.39
2022-11-19T22:10:50.027Z,17.54
2022-11-19T22:13:33.780Z,17.69
2022-11-19T22:16:17.576Z,17.74
2022-11-19T22:19:02.746Z,17.67
2022-11-19T22:21:46.751Z,17.83
2022-11-19T22:24:30.651Z,17.83
2022-11-19T22:27:14.468Z,17.87
2022-11-19T22:30:01.752Z,17.82
2022-11-19T22:32:48.375Z,17.63
2022-11-19T22:35:33.524Z,17.72
2022-11-19T22:38:17.200Z,17.57
2022-11-19T22:41:03.639Z,17.35
2022-11-19T22:43:47.495Z,17.67
2022-11-19T22:46:31.190Z,17.74
2022-11-19T22:49:14.997Z,17.76
2022-11-19T22:52:00.091Z,17.57
2022-11-19T22:54:43.939Z,17.57
2022-11-19T22:57:27.996Z,17.60
2022-11-19T23:00:14.285Z,17.42
2022-11-19T23:02:58.143Z,17.23
2022-11-19T23:05:42.211Z,17.38
2022-11-19T23:08:27.855Z,17.22
2022-11-19T23:11:11.818Z,17.41
2022-11-19T23:13:54.491Z,17.47
2022-11-19T23:16:39.291Z,17.56
2022-11-19T23:19:23.551Z,17.61
2022-11-19T23:22:07.809Z,17.73
2022-11-19T23:24:52.996Z,17.79
2022-11-19T23:27:36.809Z,17.91
2022-11-19T23:30:20.649Z,17.99
2022-11-19T23:33:04.605Z,18.06
2022-11-19T23:35:48.817Z,17.92
2022-11-19T23:38:32.555Z,17.96
2022-11-19T23:41:19.465Z,18.16
2022-11-19T23:44:03.624Z,18.24
2022-11-19T23:46:47.409Z,18.26
2022-11-19T23:49:31.240Z,18.24
2022-11-19T23:52:14.932Z,18.10
2022-11-19T23:54:58.627Z,18.23
2022-11-19T23:57:43.767Z,18.37
